Cap FAP David Abenzur Rengifo International Airport
SPCL : now visible

Airfield :











YOU CAN JOIN US ON...

 
LOGIN :

Register | Disclaimer

   EN    FR    IT 

 









Legend :    VFR   Marginal VFR   IFR   Intensive IFR   Very Intensive IFR
Visi :
Ceiling :
>= 8 km
>= 3000ft
5 to 8 km
1000 to 3000 ft
1500m to 5 km
500 to 1000 ft
800 to 1500m
200 to 500 ft
< 800m
< 200 ft
Symbols :   Thunderstorms  Fog  Heavy snow  Heavy precipitations  Wind > 20 kt






- Airport Elevation : 513 ft
- IATA code : PCL


SPCL - Cap FAP David Abenzur Rengifo International

METAR N/A
TAF SPCL
Valid from the 17 at 18:00 until the 18 at 18:00 UTC


171700Z 1718/1818 02005KT 9999 BKN020 TX35/1720Z TN22/1811Z
TEMPO 1721/1802 34015KT 4000 SHRA BKN015 FEW025TCU
TEMPO 1808/1812 00000KT 1000 BR BKN005 SCT100
SPIM FIR / South America



MET'MAP, your aeronautical weather chart ! - Copyright ORBIFLY December 2007 - Disclaimer

ORBIFLY MET'MAP TEAM :

Programming & Development : Alexandra Zaïnal
Concept & original design : Baudouin d'Aumeries
Assistance for programming : Marc-Olivier Méhu
Technical & hardware support : Manuel Goepfert

Contact : metmap@orbifly.com




SOURCES & CREDITS :

   NOAA       Earth
Advisory